createdAt,value
2018-06-16T00:06:53.927Z,0
2018-06-16T00:17:08.026Z,0
2018-06-16T00:27:21.990Z,0
2018-06-16T00:37:37.208Z,0
2018-06-16T00:47:50.957Z,0
2018-06-16T00:58:05.916Z,0
2018-06-16T01:08:20.449Z,0
2018-06-16T01:18:35.720Z,0
2018-06-16T01:28:49.613Z,0
2018-06-16T01:39:04.512Z,0
2018-06-16T01:49:20.260Z,0
2018-06-16T01:59:34.702Z,0
2018-06-16T02:09:50.353Z,0
2018-06-16T02:20:04.381Z,0
2018-06-16T02:30:17.952Z,4
2018-06-16T02:40:31.713Z,16
2018-06-16T02:50:46.060Z,48
2018-06-16T03:01:01.316Z,128
2018-06-16T03:11:16.431Z,264
2018-06-16T03:21:31.876Z,496
2018-06-16T03:31:46.464Z,928
2018-06-16T03:42:01.952Z,1424
2018-06-16T03:52:16.397Z,1908
2018-06-16T04:02:30.756Z,2892
2018-06-16T04:12:45.686Z,4132
2018-06-16T04:23:00.745Z,4992
2018-06-16T04:33:15.379Z,6428
2018-06-16T04:43:29.841Z,6736
2018-06-16T04:53:44.707Z,8092
2018-06-16T05:03:58.801Z,10336
2018-06-16T05:14:12.809Z,12860
2018-06-16T05:24:27.707Z,14960
2018-06-16T05:34:42.393Z,14520
2018-06-16T05:44:56.267Z,16128
2018-06-16T05:55:10.293Z,15900
2018-06-16T06:05:24.904Z,15856
2018-06-16T06:15:38.962Z,13588
2018-06-16T06:25:54.167Z,22240
2018-06-16T06:36:07.983Z,26464
2018-06-16T06:46:23.053Z,27904
2018-06-16T06:56:37.990Z,26848
2018-06-16T07:06:52.141Z,39840
2018-06-16T07:17:07.480Z,35840
2018-06-16T07:27:22.384Z,43648
2018-06-16T07:37:36.920Z,42432
2018-06-16T07:47:51.638Z,46144
2018-06-16T07:58:06.535Z,47424
2018-06-16T08:08:22.247Z,45536
2018-06-16T08:18:38.020Z,49504
2018-06-16T08:28:52.705Z,45248
2018-06-16T08:39:06.863Z,38528
2018-06-16T08:49:21.132Z,44704
2018-06-16T08:59:35.710Z,47936
2018-06-16T09:09:50.755Z,46080
2018-06-16T09:20:06.125Z,46656
2018-06-16T09:30:21.104Z,55776
2018-06-16T09:40:37.179Z,47936
2018-06-16T09:50:50.776Z,45536
2018-06-16T10:01:05.381Z,57376
2018-06-16T10:21:33.893Z,59040
2018-06-16T10:31:48.264Z,49696
2018-06-16T10:42:03.279Z,53568
2018-06-16T10:52:18.956Z,49696
2018-06-16T11:02:33.543Z,59040
2018-06-16T11:12:48.607Z,56160
2018-06-16T11:23:03.556Z,46720
2018-06-16T11:33:18.284Z,56128
2018-06-16T11:43:33.582Z,59552
2018-06-16T11:53:49.354Z,72032
2018-06-16T12:04:04.368Z,51392
2018-06-16T12:14:20.011Z,78016
2018-06-16T12:24:35.306Z,59488
2018-06-16T12:34:49.567Z,83616
2018-06-16T12:45:04.273Z,42880
2018-06-16T12:55:18.651Z,107136
2018-06-16T13:05:33.262Z,106304
2018-06-16T13:15:47.752Z,22784
2018-06-16T13:26:02.590Z,31968
2018-06-16T13:36:16.896Z,22784
2018-06-16T13:46:31.485Z,33216
2018-06-16T13:56:46.981Z,48320
2018-06-16T14:07:01.443Z,67232
2018-06-16T14:17:16.365Z,55104
2018-06-16T14:27:31.233Z,93376
2018-06-16T14:37:46.539Z,76256
2018-06-16T14:48:01.864Z,80128
2018-06-16T14:58:16.014Z,79584
2018-06-16T15:08:30.195Z,75296
2018-06-16T15:18:45.750Z,48800
2018-06-16T15:29:01.149Z,53792
2018-06-16T15:39:16.416Z,40448
